createdAt,value
2017-08-03T00:01:47.621Z,8.57
2017-08-03T00:04:16.162Z,8.90
2017-08-03T00:06:44.662Z,7.63
2017-08-03T00:09:13.198Z,8.50
2017-08-03T00:11:41.617Z,7.90
2017-08-03T00:14:10.099Z,9.27
2017-08-03T00:16:38.593Z,8.00
2017-08-03T00:19:07.072Z,8.27
2017-08-03T00:21:35.670Z,7.37
2017-08-03T00:24:04.199Z,8.30
2017-08-03T00:26:32.680Z,9.10
2017-08-03T00:29:01.208Z,8.20
2017-08-03T00:31:29.654Z,9.07
2017-08-03T00:33:58.140Z,7.50
2017-08-03T00:36:27.183Z,8.67
2017-08-03T00:38:55.693Z,7.43
2017-08-03T00:41:24.184Z,8.27
2017-08-03T00:43:52.630Z,8.93
2017-08-03T00:46:21.131Z,9.00
2017-08-03T00:48:49.579Z,8.73
2017-08-03T00:51:18.047Z,9.60
2017-08-03T00:53:46.530Z,10.50
2017-08-03T00:56:15.000Z,8.90
2017-08-03T00:58:43.538Z,9.93
2017-08-03T01:01:12.108Z,8.63
2017-08-03T01:03:40.563Z,9.37
2017-08-03T01:06:09.081Z,9.10
2017-08-03T01:08:37.549Z,8.80
2017-08-03T01:11:06.118Z,10.17
2017-08-03T01:13:34.570Z,11.20
2017-08-03T01:16:02.337Z,10.10
2017-08-03T01:18:30.894Z,9.50
2017-08-03T01:20:58.646Z,9.50
2017-08-03T01:23:27.111Z,10.37
2017-08-03T01:25:55.699Z,9.17
2017-08-03T01:28:24.166Z,9.50
2017-08-03T01:30:52.625Z,9.80
2017-08-03T01:33:21.206Z,9.27
2017-08-03T01:35:49.654Z,8.80
2017-08-03T01:38:18.195Z,10.50
2017-08-03T01:40:46.653Z,10.37
2017-08-03T01:43:15.068Z,9.70
2017-08-03T01:45:43.575Z,10.97
2017-08-03T01:48:12.099Z,10.87
2017-08-03T01:50:40.622Z,10.83
2017-08-03T01:53:08.715Z,9.70
2017-08-03T01:55:36.892Z,9.53
2017-08-03T01:58:05.345Z,10.40
2017-08-03T02:00:33.453Z,9.80
2017-08-03T02:03:01.963Z,9.63
2017-08-03T02:05:29.694Z,11.13
2017-08-03T02:07:57.489Z,9.93
2017-08-03T02:10:25.643Z,9.83
2017-08-03T02:12:54.164Z,11.43
2017-08-03T02:15:22.618Z,10.53
2017-08-03T02:17:51.074Z,9.40
2017-08-03T02:20:19.499Z,9.77
2017-08-03T02:22:47.933Z,11.93
2017-08-03T02:25:16.428Z,10.10
2017-08-03T02:27:44.875Z,10.00
2017-08-03T02:30:13.338Z,10.30
2017-08-03T02:32:41.817Z,10.17
2017-08-03T02:35:11.078Z,9.50
2017-08-03T02:37:39.534Z,9.70
2017-08-03T02:40:08.017Z,9.57
2017-08-03T02:42:36.481Z,10.50
2017-08-03T02:45:05.009Z,9.37
2017-08-03T02:47:33.686Z,8.70
2017-08-03T02:50:02.131Z,9.40
2017-08-03T02:52:30.599Z,8.83
2017-08-03T02:54:59.040Z,9.07
2017-08-03T02:57:27.526Z,9.63
2017-08-03T02:59:56.078Z,9.97
2017-08-03T03:02:24.525Z,10.00
2017-08-03T03:04:52.963Z,9.63
2017-08-03T03:07:21.498Z,9.00
2017-08-03T03:09:49.979Z,9.30
2017-08-03T03:12:18.526Z,10.40
2017-08-03T03:14:46.990Z,10.20
2017-08-03T03:17:15.428Z,10.03
2017-08-03T03:19:43.883Z,10.40
2017-08-03T03:22:12.380Z,10.10
2017-08-03T03:24:40.822Z,9.27
2017-08-03T03:27:09.288Z,11.40
2017-08-03T03:29:37.839Z,10.97
2017-08-03T03:32:06.302Z,9.23
2017-08-03T03:34:34.814Z,9.30
2017-08-03T03:37:03.510Z,10.03
2017-08-03T03:39:31.955Z,9.90
2017-08-03T03:42:00.330Z,10.33
2017-08-03T03:44:29.555Z,10.60
2017-08-03T03:46:58.075Z,10.80
2017-08-03T03:49:26.569Z,10.27
2017-08-03T03:51:55.034Z,8.83
2017-08-03T03:54:23.566Z,9.17
2017-08-03T03:56:52.043Z,9.83
2017-08-03T03:59:20.628Z,8.80
2017-08-03T04:01:49.099Z,8.50
2017-08-03T04:04:17.630Z,9.10
2017-08-03T04:06:46.061Z,9.17
2017-08-03T04:09:14.510Z,9.10
2017-08-03T04:11:43.011Z,9.63
2017-08-03T04:14:11.515Z,9.07
2017-08-03T04:16:39.964Z,9.10
2017-08-03T04:19:08.434Z,8.60
2017-08-03T04:21:36.874Z,9.87
2017-08-03T04:24:05.378Z,10.10
2017-08-03T04:26:34.107Z,8.43
2017-08-03T04:29:02.622Z,9.53
2017-08-03T04:31:31.217Z,9.70
2017-08-03T04:33:59.679Z,9.70
2017-08-03T04:36:28.158Z,8.10
2017-08-03T04:38:56.609Z,9.67
2017-08-03T04:41:25.090Z,8.40
2017-08-03T04:43:53.604Z,9.60
2017-08-03T04:46:22.058Z,8.80
2017-08-03T04:48:50.578Z,9.30
2017-08-03T04:51:19.135Z,8.60
2017-08-03T04:53:47.578Z,8.43
2017-08-03T04:56:16.152Z,8.93
2017-08-03T04:58:44.617Z,9.80
2017-08-03T05:01:13.118Z,8.73
2017-08-03T05:03:41.594Z,8.70
2017-08-03T05:06:10.070Z,7.90
2017-08-03T05:08:38.537Z,11.10
2017-08-03T05:11:07.069Z,8.07
2017-08-03T05:13:35.558Z,7.47
2017-08-03T05:16:04.085Z,7.70
2017-08-03T05:18:32.572Z,8.43
2017-08-03T05:21:01.017Z,9.07
2017-08-03T05:23:29.720Z,7.73
2017-08-03T05:25:57.928Z,8.43
2017-08-03T05:28:26.474Z,7.47
2017-08-03T05:30:54.963Z,9.17
2017-08-03T05:33:23.523Z,9.83
2017-08-03T05:35:52.087Z,9.47
2017-08-03T05:38:20.582Z,8.20
2017-08-03T05:40:48.854Z,8.63
2017-08-03T05:43:17.382Z,8.37
2017-08-03T05:45:45.822Z,7.93
2017-08-03T05:48:14.247Z,8.90
2017-08-03T05:50:42.707Z,7.87
2017-08-03T05:53:11.130Z,8.13
2017-08-03T05:55:39.600Z,8.30
2017-08-03T05:58:07.891Z,8.13
2017-08-03T06:00:35.625Z,7.57
2017-08-03T06:03:04.103Z,8.50
2017-08-03T06:05:32.551Z,6.70
2017-08-03T06:08:01.019Z,6.90
2017-08-03T06:10:29.515Z,7.73
2017-08-03T06:12:58.030Z,6.60
2017-08-03T06:15:26.519Z,7.30
2017-08-03T06:17:54.957Z,7.27
2017-08-03T06:20:23.407Z,6.80
2017-08-03T06:22:51.842Z,8.63
2017-08-03T06:25:20.303Z,7.07
2017-08-03T06:27:48.787Z,6.53
2017-08-03T06:30:17.233Z,7.03
2017-08-03T06:32:45.713Z,6.80
2017-08-03T06:35:14.269Z,9.00
2017-08-03T06:37:42.743Z,7.17
2017-08-03T11:17:10.674Z,3.43
2017-08-03T11:19:51.910Z,3.40
2017-08-03T11:22:39.874Z,2.87
2017-08-03T11:33:19.712Z,4.00
2017-08-03T11:35:48.267Z,3.60
2017-08-03T11:38:18.274Z,4.07
2017-08-03T11:43:22.716Z,4.30
2017-08-03T11:45:54.306Z,3.80
2017-08-03T11:51:00.559Z,5.10
2017-08-03T11:53:29.302Z,4.97
2017-08-03T11:55:57.979Z,4.40
2017-08-03T12:01:04.796Z,4.50
2017-08-03T12:03:38.751Z,4.87
2017-08-03T12:06:07.951Z,3.80
2017-08-03T12:08:37.734Z,4.33
2017-08-03T12:11:13.180Z,3.50
2017-08-03T12:16:29.114Z,4.73
2017-08-03T12:18:59.946Z,5.27
2017-08-03T12:21:28.530Z,4.00
2017-08-03T12:23:58.085Z,4.10
2017-08-03T12:26:26.422Z,4.23
2017-08-03T12:28:55.145Z,3.97
2017-08-03T12:31:24.916Z,4.00
2017-08-03T12:33:54.881Z,4.40
2017-08-03T12:36:23.612Z,4.37
2017-08-03T12:38:52.613Z,3.73
2017-08-03T12:41:22.142Z,3.83
2017-08-03T12:43:51.586Z,5.23
2017-08-03T12:46:20.188Z,4.40
2017-08-03T12:48:56.979Z,4.20
2017-08-03T12:51:27.183Z,5.00
2017-08-03T12:53:56.427Z,4.90
2017-08-03T12:56:25.015Z,5.07
2017-08-03T12:58:54.259Z,5.10
2017-08-03T13:01:32.189Z,5.83
2017-08-03T13:04:00.693Z,6.00
2017-08-03T13:12:07.824Z,7.47
2017-08-03T13:14:36.449Z,5.90
2017-08-03T13:23:23.103Z,6.50
2017-08-03T13:31:52.072Z,5.13
2017-08-03T13:34:27.282Z,5.40
2017-08-03T13:37:01.326Z,4.53
2017-08-03T13:45:04.953Z,5.20
2017-08-03T13:48:01.386Z,6.07
2017-08-03T14:45:03.979Z,5.60
2017-08-03T15:30:09.613Z,7.40
2017-08-03T15:32:39.655Z,5.57
2017-08-03T15:35:09.156Z,7.00
2017-08-03T15:40:44.822Z,6.80
2017-08-03T15:43:25.028Z,6.97
2017-08-03T15:48:48.348Z,6.93
2017-08-03T16:34:39.879Z,7.67
2017-08-03T16:46:57.280Z,9.50
2017-08-03T16:49:29.617Z,11.40
2017-08-03T16:54:50.464Z,9.40
2017-08-03T17:52:18.514Z,8.70
2017-08-03T18:00:45.516Z,8.47
2017-08-03T18:32:21.215Z,10.40
2017-08-03T20:03:19.376Z,10.43
2017-08-03T20:36:03.167Z,9.73
2017-08-03T20:47:01.635Z,8.40
2017-08-03T21:02:43.167Z,6.20
2017-08-03T21:41:27.196Z,6.07
2017-08-03T21:44:00.831Z,6.27
2017-08-03T21:46:32.758Z,5.87
2017-08-03T21:49:10.274Z,5.97
2017-08-03T21:52:05.353Z,4.90
2017-08-03T21:57:46.054Z,5.20
2017-08-03T22:00:14.983Z,5.63
2017-08-03T22:05:42.151Z,6.17
2017-08-03T22:08:15.747Z,5.67
2017-08-03T22:10:44.454Z,5.60
2017-08-03T22:13:35.306Z,5.60
2017-08-03T22:16:21.411Z,6.57
2017-08-03T22:18:51.870Z,6.53
2017-08-03T22:21:20.727Z,6.00
2017-08-03T22:23:49.377Z,6.20
2017-08-03T22:26:21.747Z,7.20
2017-08-03T22:28:55.082Z,6.30
2017-08-03T22:31:36.096Z,5.80
2017-08-03T22:34:06.353Z,6.67
2017-08-03T22:36:36.964Z,5.90
2017-08-03T22:42:49.326Z,7.20
2017-08-03T22:52:12.446Z,10.07
2017-08-03T22:58:30.323Z,6.30
2017-08-03T23:03:50.025Z,6.10
2017-08-03T23:06:34.727Z,6.67
2017-08-03T23:12:03.378Z,7.70
2017-08-03T23:18:54.827Z,6.20
2017-08-03T23:21:25.754Z,7.30
2017-08-03T23:24:02.960Z,6.30
2017-08-03T23:26:31.567Z,7.60
2017-08-03T23:29:00.158Z,7.70
2017-08-03T23:31:28.637Z,6.00
2017-08-03T23:37:20.679Z,6.50
2017-08-03T23:43:10.625Z,7.20
2017-08-03T23:45:39.928Z,6.70
2017-08-03T23:54:12.037Z,6.77
2017-08-03T23:56:46.336Z,7.00
